Time;durP1;ratioP1;P1;durP2;ratioP2;P2;SDS_P1;SDS_P2;PMS_P1;PMS_P2;Temp;Humidity;BMP_temperature;BMP_pressure;BME280_temperature;BME280_humidity;BME280_pressure;Samples;Min_cycle;Max_cycle;Signal;HPM_P1;HPM_P2
2023/02/19 00:01:25;;;;;;;3.50;1.50;;;;;;;11.23;88.52;96741.66;5058620;28;20212;-69
2023/02/19 00:03:53;;;;;;;2.47;1.43;;;;;;;11.29;87.91;96749.72;5058325;28;20202;-67
2023/02/19 00:06:23;;;;;;;2.87;1.50;;;;;;;11.22;88.40;96732.91;5058370;28;20711;-69
2023/02/19 00:08:49;;;;;;;3.33;1.73;;;;;;;11.21;88.37;96736.53;5058665;28;20197;-67
2023/02/19 00:11:18;;;;;;;5.10;1.50;;;;;;;11.24;88.51;96733.56;5059440;28;20591;-68
2023/02/19 00:13:47;;;;;;;1.90;1.10;;;;;;;11.25;88.57;96734.38;5059026;28;20239;-68
2023/02/19 00:16:15;;;;;;;1.87;1.30;;;;;;;11.22;88.56;96724.97;5059288;28;20219;-68
2023/02/19 00:18:42;;;;;;;2.83;1.10;;;;;;;11.20;88.53;96732.25;5058540;28;20207;-67
2023/02/19 00:21:09;;;;;;;1.77;1.17;;;;;;;11.10;88.81;96728.97;5059394;28;20193;-68
2023/02/19 00:23:37;;;;;;;1.57;1.20;;;;;;;11.23;88.88;96724.00;5058315;28;20235;-66
2023/02/19 00:26:06;;;;;;;1.80;1.10;;;;;;;11.14;88.96;96722.38;5058809;28;20204;-68
2023/02/19 00:28:32;;;;;;;3.67;1.80;;;;;;;11.15;88.72;96715.28;5058914;28;20291;-68
2023/02/19 00:31:04;;;;;;;2.80;1.67;;;;;;;11.28;88.70;96718.22;5058640;28;20221;-68
2023/02/19 00:33:31;;;;;;;2.70;1.43;;;;;;;11.04;89.36;96718.28;5058183;28;20229;-66
2023/02/19 00:35:59;;;;;;;3.07;1.43;;;;;;;11.14;89.20;96717.09;5058322;28;20672;-67
2023/02/19 00:38:26;;;;;;;1.70;1.07;;;;;;;11.07;89.20;96716.13;5057968;28;20189;-68
2023/02/19 00:40:54;;;;;;;4.67;1.40;;;;;;;11.10;89.40;96721.06;5058711;28;20665;-67
2023/02/19 00:43:21;;;;;;;2.47;1.40;;;;;;;11.05;89.44;96710.19;5058941;28;20224;-68
2023/02/19 00:45:47;;;;;;;2.27;1.30;;;;;;;10.95;90.07;96709.56;5057745;28;20204;-68
2023/02/19 00:48:14;;;;;;;3.43;1.23;;;;;;;10.99;89.88;96710.06;5057889;28;20212;-68
2023/02/19 00:50:40;;;;;;;2.90;1.50;;;;;;;11.00;90.08;96704.59;5058419;28;20243;-67
2023/02/19 00:53:07;;;;;;;2.00;1.40;;;;;;;11.08;89.69;96709.84;5058504;28;20239;-69
2023/02/19 00:55:33;;;;;;;3.13;1.50;;;;;;;11.07;89.65;96705.59;5057155;28;20209;-68
2023/02/19 00:58:01;;;;;;;3.10;1.20;;;;;;;11.07;90.06;96702.97;5057997;28;20707;-69
2023/02/19 01:00:27;;;;;;;2.03;1.27;;;;;;;11.07;89.52;96697.69;5058150;28;20207;-68
2023/02/19 01:02:54;;;;;;;2.70;1.43;;;;;;;10.98;90.21;96701.31;5058137;28;20223;-69
2023/02/19 01:05:20;;;;;;;2.53;1.47;;;;;;;10.91;90.81;96694.25;5056761;28;20201;-66
2023/02/19 01:07:47;;;;;;;4.33;1.30;;;;;;;10.99;90.16;96696.88;5057643;28;20219;-68
2023/02/19 01:10:13;;;;;;;1.70;1.30;;;;;;;10.99;90.10;96695.03;5057667;28;20232;-68
2023/02/19 01:12:40;;;;;;;2.63;1.40;;;;;;;11.06;90.12;96698.66;5057715;28;20228;-68
2023/02/19 01:15:09;;;;;;;2.40;1.70;;;;;;;11.06;90.73;96689.91;5057002;28;20684;-69
2023/02/19 01:17:36;;;;;;;1.53;1.10;;;;;;;10.99;90.52;96704.78;5057607;28;20672;-69
2023/02/19 01:20:03;;;;;;;1.70;1.17;;;;;;;10.98;90.81;96698.69;5057197;28;20201;-69
2023/02/19 01:22:29;;;;;;;6.77;1.50;;;;;;;10.99;90.86;96692.41;5057447;28;20232;-67
2023/02/19 01:24:56;;;;;;;1.47;1.10;;;;;;;10.99;90.84;96695.03;5057566;28;20574;-69
2023/02/19 01:27:22;;;;;;;2.33;1.17;;;;;;;11.11;90.46;96691.06;5057342;28;20196;-68
2023/02/19 01:29:49;;;;;;;3.53;1.30;;;;;;;11.08;90.60;96693.22;5057452;28;20204;-68
2023/02/19 01:32:16;;;;;;;4.37;1.40;;;;;;;11.13;90.73;96693.53;5057810;28;20217;-68
2023/02/19 01:34:43;;;;;;;1.60;1.17;;;;;;;11.05;90.87;96683.00;5057182;28;20208;-68
2023/02/19 01:37:10;;;;;;;2.50;1.33;;;;;;;11.06;90.87;96682.84;5057368;28;20688;-66
2023/02/19 01:39:37;;;;;;;3.47;1.40;;;;;;;11.05;91.19;96683.00;5057379;28;20205;-69
2023/02/19 01:42:04;;;;;;;4.33;1.20;;;;;;;10.97;91.62;96675.94;5056687;28;20216;-68
2023/02/19 01:45:23;;;;;;;1.40;1.20;;;;;;;11.12;91.06;96681.34;5056592;28;20201;-69
2023/02/19 01:48:01;;;;;;;2.03;1.00;;;;;;;11.11;91.40;96680.53;5057081;28;20196;-67
2023/02/19 01:50:31;;;;;;;2.93;1.50;;;;;;;11.12;91.44;96689.25;5055497;28;20236;-68
2023/02/19 01:53:03;;;;;;;2.27;1.40;;;;;;;11.00;91.84;96682.69;5056705;28;20233;-69
2023/02/19 01:55:29;;;;;;;2.87;1.60;;;;;;;11.04;91.59;96674.25;5056308;28;20873;-69
2023/02/19 01:57:56;;;;;;;4.13;1.50;;;;;;;10.76;92.78;96658.19;5057147;28;20200;-69
2023/02/19 02:00:24;;;;;;;2.90;1.60;;;;;;;10.96;92.08;96666.38;5056496;28;20201;-67
2023/02/19 02:02:56;;;;;;;1.60;1.20;;;;;;;11.01;92.38;96657.97;5056819;28;20220;-69
2023/02/19 02:05:32;;;;;;;4.33;1.73;;;;;;;11.02;92.16;96663.06;5055245;28;20196;-67
2023/02/19 02:10:46;;;;;;;3.03;1.60;;;;;;;11.03;91.73;96650.69;5056735;28;20223;-67
2023/02/19 02:13:12;;;;;;;1.80;1.47;;;;;;;11.00;92.10;96653.69;5056500;28;20235;-68
2023/02/19 02:15:50;;;;;;;4.40;1.70;;;;;;;11.01;92.40;96653.50;5055536;28;20209;-67
2023/02/19 02:18:28;;;;;;;3.40;1.50;;;;;;;10.99;92.32;96652.03;5056914;28;20580;-68
2023/02/19 02:21:17;;;;;;;2.13;1.57;;;;;;;11.12;92.06;96650.50;5057172;28;20193;-68
2023/02/19 02:23:54;;;;;;;2.37;1.30;;;;;;;11.02;92.81;96644.63;5056086;28;20243;-69
2023/02/19 02:26:31;;;;;;;2.60;1.50;;;;;;;11.14;93.30;96643.25;5057709;28;20200;-68
2023/02/19 02:29:25;;;;;;;1.93;1.50;;;;;;;11.01;93.63;96626.34;5056462;28;20210;-66
2023/02/19 02:31:58;;;;;;;2.00;1.40;;;;;;;11.07;94.05;96623.00;5056487;28;21167;-67
2023/02/19 02:34:29;;;;;;;2.20;1.33;;;;;;;10.89;94.95;96611.03;5056745;28;20205;-69
2023/02/19 02:36:57;;;;;;;1.50;0.93;;;;;;;10.86;95.36;96619.28;5056373;28;20203;-68
2023/02/19 02:39:26;;;;;;;3.10;1.70;;;;;;;10.86;97.98;96616.63;5056320;28;20205;-68
2023/02/19 02:45:33;;;;;;;2.70;1.17;;;;;;;10.57;99.84;96621.66;5056173;28;20200;-69
2023/02/19 02:47:40;;;;;;;3.00;1.60;;;;;;;10.74;99.64;96620.63;5056564;28;20693;-68
2023/02/19 02:50:09;;;;;;;3.17;1.73;;;;;;;10.62;99.54;96619.34;5057015;28;20257;-69
2023/02/19 02:55:26;;;;;;;2.83;1.73;;;;;;;10.61;99.21;96607.16;5055913;28;20292;-67
2023/02/19 02:57:53;;;;;;;3.57;1.93;;;;;;;10.65;99.41;96611.09;5057306;28;20196;-69
2023/02/19 03:00:19;;;;;;;1.90;1.33;;;;;;;10.52;99.18;96613.44;5057265;28;20205;-69
2023/02/19 03:02:46;;;;;;;2.97;1.70;;;;;;;10.72;98.62;96612.91;5061002;28;20227;-66
2023/02/19 03:08:09;;;;;;;3.23;2.00;;;;;;;10.69;97.98;96607.13;5060869;28;20215;-67
2023/02/19 03:10:40;;;;;;;2.43;1.50;;;;;;;10.73;97.78;96593.47;5060782;28;20286;-68
2023/02/19 03:21:37;;;;;;;3.13;1.80;;;;;;;10.54;97.35;96595.66;5059986;28;20372;-68
2023/02/19 03:26:52;;;;;;;1.60;1.30;;;;;;;10.64;96.06;96583.94;5060587;28;20211;-67
2023/02/19 03:29:24;;;;;;;4.90;1.83;;;;;;;10.67;96.06;96582.78;5059985;28;20208;-68
2023/02/19 03:31:54;;;;;;;3.07;1.90;;;;;;;10.63;96.53;96581.47;5059656;28;20228;-68
2023/02/19 03:34:28;;;;;;;2.30;1.50;;;;;;;10.69;96.22;96572.88;5060054;28;20209;-67
2023/02/19 03:37:03;;;;;;;1.87;1.10;;;;;;;10.59;95.78;96585.41;5059556;28;20200;-69
2023/02/19 03:39:30;;;;;;;1.63;1.20;;;;;;;10.47;95.93;96573.59;5059781;28;20204;-67
2023/02/19 03:42:06;;;;;;;2.93;1.33;;;;;;;10.67;95.78;96574.88;5059806;28;20700;-67
2023/02/19 03:44:41;;;;;;;2.00;1.40;;;;;;;10.63;95.57;96577.00;5058620;28;20208;-68
2023/02/19 03:47:17;;;;;;;2.30;1.23;;;;;;;10.65;95.59;96567.09;5060307;28;20204;-67
2023/02/19 03:49:49;;;;;;;5.60;2.00;;;;;;;10.63;96.10;96574.38;5060089;28;20570;-69
2023/02/19 03:52:20;;;;;;;2.43;1.67;;;;;;;10.56;96.09;96588.38;5059331;28;20232;-69
2023/02/19 03:54:54;;;;;;;2.87;1.47;;;;;;;10.57;96.11;96571.59;5058707;28;20211;-69
2023/02/19 03:57:25;;;;;;;2.37;1.43;;;;;;;10.46;96.28;96572.78;5059557;28;20576;-68
2023/02/19 03:59:59;;;;;;;2.67;1.70;;;;;;;10.56;96.10;96569.94;5059398;28;20246;-68
2023/02/19 04:02:29;;;;;;;2.40;1.30;;;;;;;10.63;95.56;96574.38;5059344;28;20217;-66
2023/02/19 04:05:04;;;;;;;2.70;1.80;;;;;;;10.60;95.44;96576.53;5058196;28;20197;-69
2023/02/19 04:07:34;;;;;;;2.33;1.70;;;;;;;10.52;95.49;96574.72;5058727;28;20676;-69
2023/02/19 04:10:02;;;;;;;2.73;1.60;;;;;;;10.51;95.84;96585.44;5059694;28;20211;-69
2023/02/19 04:12:30;;;;;;;2.03;1.60;;;;;;;10.45;96.17;96586.94;5057847;28;20239;-67
2023/02/19 04:15:01;;;;;;;1.80;1.20;;;;;;;10.47;95.27;96578.88;5058388;28;20207;-68
2023/02/19 04:17:34;;;;;;;4.20;1.67;;;;;;;10.51;95.63;96586.28;5059302;28;20627;-69
2023/02/19 04:20:05;;;;;;;2.13;1.30;;;;;;;10.60;95.16;96594.97;5059634;28;20590;-68
2023/02/19 04:22:33;;;;;;;3.27;1.77;;;;;;;10.43;95.34;96590.72;5058963;28;20244;-67
2023/02/19 04:24:59;;;;;;;2.53;1.70;;;;;;;10.27;95.73;96596.00;5058635;28;20208;-69
2023/02/19 04:27:26;;;;;;;4.67;1.60;;;;;;;10.40;95.34;96594.53;5059417;28;20200;-68
2023/02/19 04:29:53;;;;;;;2.20;1.30;;;;;;;10.28;96.00;96595.03;5058949;28;20208;-68
2023/02/19 04:32:19;;;;;;;1.63;0.97;;;;;;;10.35;95.55;96591.56;5058709;28;20220;-67
2023/02/19 04:34:46;;;;;;;1.70;1.20;;;;;;;10.23;95.37;96592.06;5058203;28;20207;-68
2023/02/19 04:37:14;;;;;;;2.13;1.60;;;;;;;10.31;95.44;96592.06;5058321;28;20204;-68
2023/02/19 04:39:40;;;;;;;1.57;1.10;;;;;;;10.19;95.59;96597.84;5058291;28;20703;-68
2023/02/19 04:42:07;;;;;;;3.93;1.30;;;;;;;10.22;94.48;96595.72;5059247;28;20223;-68
2023/02/19 04:44:34;;;;;;;2.17;1.00;;;;;;;10.19;94.79;96605.75;5058174;28;20209;-68
2023/02/19 04:47:00;;;;;;;2.50;1.50;;;;;;;10.20;94.45;96602.94;5058667;28;20257;-67
2023/02/19 04:49:27;;;;;;;1.90;1.40;;;;;;;10.23;94.48;96613.13;5059208;28;20212;-68
2023/02/19 04:51:54;;;;;;;1.57;1.00;;;;;;;10.17;94.77;96613.81;5058411;28;20237;-69
2023/02/19 04:54:21;;;;;;;1.70;1.20;;;;;;;10.15;94.69;96615.78;5057053;28;20771;-68
2023/02/19 04:56:49;;;;;;;2.50;1.30;;;;;;;9.99;95.44;96612.31;5058831;28;20200;-69
2023/02/19 04:59:16;;;;;;;2.97;1.40;;;;;;;10.16;94.79;96612.16;5058840;28;20279;-68
2023/02/19 05:01:43;;;;;;;0.60;0.60;;;;;;;10.19;94.04;96611.81;5058252;28;20232;-68
2023/02/19 05:04:09;;;;;;;3.90;1.50;;;;;;;10.23;94.10;96622.84;5057039;28;20208;-67
2023/02/19 05:06:36;;;;;;;1.70;1.13;;;;;;;10.18;94.32;96620.69;5058423;28;20200;-68
2023/02/19 05:09:02;;;;;;;1.93;1.20;;;;;;;10.18;94.28;96625.97;5057842;28;20204;-69
2023/02/19 05:11:30;;;;;;;4.03;1.80;;;;;;;10.30;94.04;96627.31;5057590;28;20235;-69
2023/02/19 05:13:57;;;;;;;3.70;1.50;;;;;;;10.26;93.71;96623.34;5057803;28;20207;-67
2023/02/19 05:16:23;;;;;;;2.33;1.47;;;;;;;10.22;94.05;96631.72;5058099;28;20749;-69
2023/02/19 05:18:50;;;;;;;1.87;1.40;;;;;;;10.20;94.16;96631.09;5057835;28;20212;-67
2023/02/19 05:21:16;;;;;;;2.37;1.43;;;;;;;10.11;94.56;96638.16;5057896;28;20196;-67
2023/02/19 05:23:43;;;;;;;2.17;1.43;;;;;;;10.16;94.27;96643.75;5056579;28;20216;-69
2023/02/19 05:26:14;;;;;;;3.80;1.80;;;;;;;10.37;93.55;96646.72;5057360;28;21164;-67
2023/02/19 05:28:42;;;;;;;2.83;1.47;;;;;;;10.31;93.68;96641.28;5057591;28;20244;-67
2023/02/19 05:31:09;;;;;;;1.67;1.00;;;;;;;10.24;93.92;96649.03;5057257;28;20211;-68
2023/02/19 05:33:36;;;;;;;0.90;0.83;;;;;;;10.18;93.69;96640.97;5056731;28;20220;-66
2023/02/19 05:36:06;;;;;;;2.17;1.30;;;;;;;10.27;93.60;96645.25;5057757;28;20691;-68
2023/02/19 05:38:32;;;;;;;1.20;0.90;;;;;;;10.19;94.05;96653.97;5057812;28;20205;-67
2023/02/19 05:41:07;;;;;;;2.90;1.70;;;;;;;10.36;94.10;96655.59;5057467;28;20211;-66
2023/02/19 05:43:33;;;;;;;4.33;1.50;;;;;;;10.22;94.40;96648.38;5056986;28;20227;-68
2023/02/19 05:46:01;;;;;;;2.00;1.10;;;;;;;10.25;94.31;96655.94;5057831;28;20204;-69
2023/02/19 05:48:28;;;;;;;1.57;1.17;;;;;;;10.20;94.45;96654.81;5058183;28;20212;-68
2023/02/19 05:50:54;;;;;;;1.63;1.20;;;;;;;10.24;94.22;96656.94;5057687;28;20207;-68
2023/02/19 05:53:21;;;;;;;2.13;1.00;;;;;;;10.21;94.43;96673.06;5056795;28;20224;-66
2023/02/19 05:55:47;;;;;;;1.50;0.90;;;;;;;10.12;95.44;96678.47;5056179;28;20223;-68
2023/02/19 05:58:14;;;;;;;1.40;1.20;;;;;;;10.25;94.87;96678.84;5056897;28;20208;-69
2023/02/19 06:00:40;;;;;;;0.73;0.70;;;;;;;10.18;95.10;96673.38;5057723;28;20208;-69
2023/02/19 06:03:08;;;;;;;0.60;0.60;;;;;;;10.26;95.02;96680.47;5057250;28;20216;-69
2023/02/19 06:05:35;;;;;;;1.07;0.63;;;;;;;10.19;95.36;96677.66;5055629;28;20207;-67
2023/02/19 06:08:01;;;;;;;0.50;0.50;;;;;;;10.17;95.85;96679.66;5057870;28;20672;-68
2023/02/19 06:10:28;;;;;;;0.93;0.90;;;;;;;10.19;95.98;96690.00;5057986;28;20208;-68
2023/02/19 06:12:54;;;;;;;3.57;1.10;;;;;;;10.12;96.53;96687.22;5056456;28;20220;-67
2023/02/19 06:15:21;;;;;;;1.03;0.90;;;;;;;10.13;96.79;96691.50;5056338;28;20207;-66
2023/02/19 06:17:47;;;;;;;1.57;1.03;;;;;;;10.07;98.06;96702.69;5057714;28;20231;-67
2023/02/19 06:20:15;;;;;;;1.53;0.90;;;;;;;10.02;100.00;96702.34;5056790;28;20231;-67
2023/02/19 06:22:42;;;;;;;1.47;0.90;;;;;;;9.90;100.00;96706.25;5056608;28;20231;-68
2023/02/19 06:25:11;;;;;;;2.15;1.30;;;;;;;9.73;100.00;96714.25;5056307;28;20532;-69
2023/02/19 06:27:38;;;;;;;2.27;1.37;;;;;;;9.72;100.00;96708.19;5059143;28;20209;-67
2023/02/19 06:30:05;;;;;;;2.30;1.47;;;;;;;9.64;100.00;96711.75;5056905;28;20197;-68
2023/02/19 06:32:31;;;;;;;2.23;1.60;;;;;;;9.64;100.00;96714.41;5058028;28;20232;-67
2023/02/19 06:34:58;;;;;;;1.27;0.83;;;;;;;9.51;100.00;96714.00;5056976;28;20197;-68
2023/02/19 06:37:26;;;;;;;3.17;1.60;;;;;;;9.51;100.00;96729.78;5056736;28;20207;-68
2023/02/19 06:39:52;;;;;;;3.00;1.40;;;;;;;9.44;100.00;96739.28;5056577;28;20207;-68
2023/02/19 06:42:19;;;;;;;2.07;1.40;;;;;;;9.44;100.00;96740.09;5057034;28;21261;-67
2023/02/19 06:44:45;;;;;;;1.90;1.57;;;;;;;9.45;100.00;96744.41;5057043;28;20207;-68
2023/02/19 06:47:12;;;;;;;1.43;0.97;;;;;;;9.46;100.00;96748.69;5057532;28;21004;-68
2023/02/19 06:49:39;;;;;;;2.87;1.30;;;;;;;9.45;100.00;96741.75;5057025;28;20212;-68
2023/02/19 06:52:05;;;;;;;3.30;1.00;;;;;;;9.43;100.00;96759.53;5056778;28;20227;-70
2023/02/19 06:54:33;;;;;;;4.47;0.90;;;;;;;9.48;100.00;96757.25;5056186;28;20205;-69
2023/02/19 06:57:02;;;;;;;2.57;1.43;;;;;;;9.49;100.00;96753.63;5057226;28;20715;-67
2023/02/19 06:59:28;;;;;;;2.60;1.37;;;;;;;9.46;100.00;96766.28;5056864;28;20337;-70
2023/02/19 07:01:55;;;;;;;2.43;1.67;;;;;;;9.47;100.00;96770.53;5056786;28;20212;-66
2023/02/19 07:04:21;;;;;;;3.77;1.20;;;;;;;9.51;100.00;96766.59;5055840;28;20200;-68
2023/02/19 07:06:48;;;;;;;2.37;1.47;;;;;;;9.57;100.00;96776.50;5058267;28;20219;-68
2023/02/19 07:09:14;;;;;;;1.33;1.00;;;;;;;9.51;100.00;96788.50;5057525;28;20203;-67
2023/02/19 07:11:42;;;;;;;1.83;1.07;;;;;;;9.58;100.00;96784.25;5058247;28;20220;-68
2023/02/19 07:14:14;;;;;;;0.77;0.77;;;;;;;9.70;100.00;96786.44;5058383;28;20277;-66
2023/02/19 07:16:41;;;;;;;2.30;1.10;;;;;;;9.56;100.00;96795.91;5057638;28;20229;-68
2023/02/19 07:19:08;;;;;;;2.40;1.03;;;;;;;9.47;100.00;96794.22;5058081;28;20201;-66
2023/02/19 07:21:36;;;;;;;1.27;0.90;;;;;;;9.53;100.00;96801.50;5053473;28;20202;-68
2023/02/19 07:24:03;;;;;;;2.73;0.90;;;;;;;9.61;100.00;96806.78;5053537;28;20209;-67
2023/02/19 07:26:30;;;;;;;2.23;1.27;;;;;;;9.65;100.00;96806.31;5055208;28;20286;-66
2023/02/19 07:28:58;;;;;;;1.27;0.97;;;;;;;9.74;100.00;96811.44;5056498;28;20200;-69
2023/02/19 07:31:24;;;;;;;2.50;1.30;;;;;;;9.70;100.00;96820.66;5055201;28;20223;-68
2023/02/19 07:33:52;;;;;;;3.17;1.10;;;;;;;9.77;100.00;96816.38;5055474;28;20227;-70
2023/02/19 07:36:20;;;;;;;2.30;1.00;;;;;;;9.82;100.00;96816.75;5056531;28;20201;-69
2023/02/19 07:38:46;;;;;;;3.00;1.00;;;;;;;9.81;100.00;96823.00;5056240;28;20688;-69
2023/02/19 07:41:13;;;;;;;1.20;0.63;;;;;;;9.86;100.00;96833.91;5055842;28;20204;-68
2023/02/19 07:43:40;;;;;;;0.60;0.47;;;;;;;9.89;100.00;96830.94;5054600;28;20220;-69
2023/02/19 07:46:11;;;;;;;2.83;0.47;;;;;;;9.99;100.00;96829.03;5056150;28;20208;-68
2023/02/19 07:48:38;;;;;;;0.40;0.40;;;;;;;9.91;96.92;96844.75;5058145;28;20208;-69
2023/02/19 07:51:06;;;;;;;0.30;0.30;;;;;;;9.97;97.00;96859.94;5059776;28;20196;-68
2023/02/19 07:53:34;;;;;;;0.33;0.33;;;;;;;9.91;98.21;96850.00;5059067;28;20231;-69
2023/02/19 07:56:02;;;;;;;0.40;0.30;;;;;;;9.74;99.38;96850.13;5059296;28;20653;-69
2023/02/19 07:58:29;;;;;;;0.43;0.33;;;;;;;9.58;100.00;96878.97;5058334;28;20220;-70
2023/02/19 08:00:55;;;;;;;0.30;0.30;;;;;;;9.47;100.00;96873.97;5059279;28;20200;-69
2023/02/19 08:03:22;;;;;;;0.30;0.30;;;;;;;9.45;100.00;96857.50;5059368;28;20216;-70
2023/02/19 08:05:52;;;;;;;3.17;1.40;;;;;;;9.47;100.00;96863.44;5059039;28;20203;-69
2023/02/19 08:08:19;;;;;;;1.30;0.70;;;;;;;9.35;100.00;96862.03;5058214;28;20291;-69
2023/02/19 08:13:44;;;;;;;7.37;2.47;;;;;;;9.50;100.00;96871.03;5016812;28;20296;-68
2023/02/19 08:16:14;;;;;;;1.37;0.83;;;;;;;9.64;100.00;96872.28;5017148;28;20217;-69
2023/02/19 08:18:42;;;;;;;2.90;1.30;;;;;;;9.68;100.00;96877.03;5036206;28;20211;-68
2023/02/19 08:21:09;;;;;;;21.23;5.57;;;;;;;9.73;99.85;96880.84;5059853;28;20201;-68
2023/02/19 08:23:36;;;;;;;0.80;0.60;;;;;;;9.68;98.91;96878.88;5058623;28;20228;-68
2023/02/19 08:26:03;;;;;;;1.23;0.90;;;;;;;9.77;98.31;96884.81;5059073;28;20201;-68
2023/02/19 08:28:30;;;;;;;0.60;0.60;;;;;;;9.73;97.13;96898.47;5058758;28;20205;-70
2023/02/19 08:31:00;;;;;;;1.70;0.90;;;;;;;9.86;97.27;96899.72;5060295;28;20197;-67
2023/02/19 08:33:26;;;;;;;0.70;0.70;;;;;;;9.64;96.28;96903.84;5058057;28;20224;-69
2023/02/19 08:35:54;;;;;;;1.40;0.67;;;;;;;9.85;95.93;96903.31;5057443;28;20196;-70
2023/02/19 08:38:22;;;;;;;0.57;0.50;;;;;;;9.89;95.51;96899.38;5058320;28;20211;-69
2023/02/19 08:40:48;;;;;;;0.40;0.40;;;;;;;9.91;95.17;96910.56;5060022;28;20209;-69
2023/02/19 08:43:17;;;;;;;0.60;0.60;;;;;;;9.95;94.56;96914.56;5057872;28;20220;-69
2023/02/19 08:45:46;;;;;;;0.40;0.40;;;;;;;9.99;93.57;96910.66;5055987;28;20280;-70
2023/02/19 08:48:12;;;;;;;2.20;0.70;;;;;;;10.01;92.94;96907.88;5058843;28;20205;-68
2023/02/19 08:50:39;;;;;;;0.40;0.40;;;;;;;9.98;89.48;96914.28;5059076;28;20209;-68
2023/02/19 08:53:07;;;;;;;0.67;0.67;;;;;;;10.17;86.40;96916.66;5056829;28;20228;-69
2023/02/19 08:55:34;;;;;;;4.63;0.77;;;;;;;10.24;85.96;96909.78;5056996;28;20235;-68
2023/02/19 08:58:00;;;;;;;0.70;0.70;;;;;;;10.22;85.25;96911.75;5058098;28;20201;-69
2023/02/19 09:00:27;;;;;;;0.50;0.50;;;;;;;10.32;86.04;96909.78;5056898;28;20198;-69
2023/02/19 09:02:53;;;;;;;0.80;0.70;;;;;;;10.27;85.39;96898.09;5055345;28;20219;-69
2023/02/19 09:05:20;;;;;;;0.70;0.50;;;;;;;10.19;85.12;96909.41;5055217;28;20220;-68
2023/02/19 09:07:46;;;;;;;0.43;0.40;;;;;;;10.20;84.13;96911.06;5056725;28;20208;-69
2023/02/19 09:10:14;;;;;;;0.93;0.70;;;;;;;10.28;84.64;96921.63;5056098;28;20196;-69
2023/02/19 09:12:41;;;;;;;4.73;1.13;;;;;;;10.27;84.98;96924.44;5057112;28;20704;-70
2023/02/19 09:15:08;;;;;;;0.40;0.40;;;;;;;10.23;84.18;96926.56;5056061;28;20201;-69
2023/02/19 09:17:35;;;;;;;0.43;0.40;;;;;;;10.31;85.35;96926.59;5056642;28;20204;-69
2023/02/19 09:20:01;;;;;;;1.20;0.50;;;;;;;10.29;85.78;96939.09;5057677;28;20219;-70
2023/02/19 09:22:28;;;;;;;2.40;0.80;;;;;;;10.40;86.23;96937.00;5058443;28;20278;-69
2023/02/19 09:24:55;;;;;;;3.17;0.80;;;;;;;10.43;86.67;96936.69;5055942;28;20204;-69
2023/02/19 09:27:22;;;;;;;3.40;0.80;;;;;;;10.55;86.73;96940.69;5056854;28;20203;-68
2023/02/19 09:29:49;;;;;;;2.07;1.30;;;;;;;10.50;88.33;96936.88;5057870;28;20200;-69
2023/02/19 09:32:15;;;;;;;0.47;0.40;;;;;;;10.46;86.63;96949.56;5056988;28;20227;-70
2023/02/19 09:34:42;;;;;;;0.70;0.50;;;;;;;10.46;86.29;96943.44;5057200;28;20201;-69
2023/02/19 09:37:09;;;;;;;2.30;1.07;;;;;;;10.65;86.40;96937.91;5056788;28;20932;-70
2023/02/19 09:39:36;;;;;;;5.60;0.70;;;;;;;10.83;85.77;96938.63;5056201;28;20192;-68
2023/02/19 09:42:11;;;;;;;0.60;0.47;;;;;;;10.90;84.01;96929.09;5056341;28;20614;-70
2023/02/19 09:44:41;;;;;;;1.03;0.57;;;;;;;10.88;83.12;96947.69;5056396;28;20219;-68
2023/02/19 09:47:16;;;;;;;0.93;0.47;;;;;;;10.93;82.22;96952.47;5057073;28;20196;-69
2023/02/19 09:49:48;;;;;;;1.67;0.70;;;;;;;10.93;83.00;96950.66;5056164;28;20746;-67
2023/02/19 09:52:24;;;;;;;1.97;1.27;;;;;;;10.89;83.21;96965.16;5056552;28;20305;-69
2023/02/19 09:54:56;;;;;;;1.60;0.83;;;;;;;10.65;84.43;96969.53;5056676;28;20203;-69
2023/02/19 09:57:23;;;;;;;0.30;0.30;;;;;;;10.53;85.06;96973.47;5057415;28;20203;-70
2023/02/19 09:59:57;;;;;;;1.10;0.67;;;;;;;10.47;86.43;96977.53;5059125;28;20215;-69
2023/02/19 10:02:26;;;;;;;0.40;0.40;;;;;;;10.46;86.94;96972.41;5056341;28;20224;-69
2023/02/19 10:04:53;;;;;;;0.40;0.40;;;;;;;10.38;89.08;96985.56;5054040;28;21140;-69
2023/02/19 10:07:23;;;;;;;0.97;0.60;;;;;;;10.36;90.63;96988.38;5054952;28;20235;-68
2023/02/19 10:09:54;;;;;;;0.30;0.30;;;;;;;10.27;91.22;96992.91;5055399;28;20221;-70
2023/02/19 10:12:27;;;;;;;0.70;0.50;;;;;;;10.22;91.72;96996.03;5055948;28;20217;-68
2023/02/19 10:15:00;;;;;;;1.03;0.60;;;;;;;10.39;92.07;96997.75;5055867;28;20981;-68
2023/02/19 10:17:29;;;;;;;0.50;0.50;;;;;;;10.34;92.07;96997.41;5056823;28;20583;-69
2023/02/19 10:19:57;;;;;;;0.93;0.63;;;;;;;10.21;91.88;96981.22;5055034;28;20196;-70
2023/02/19 10:22:24;;;;;;;1.37;0.57;;;;;;;10.32;90.82;96982.75;5056766;28;20239;-70
2023/02/19 10:24:53;;;;;;;1.07;0.70;;;;;;;10.50;91.00;96984.28;5055601;28;20200;-69
2023/02/19 10:27:20;;;;;;;0.87;0.43;;;;;;;10.50;89.50;96985.13;5054756;28;20196;-70
2023/02/19 10:29:48;;;;;;;2.70;1.40;;;;;;;10.63;87.36;96977.63;5054853;28;20960;-69
2023/02/19 10:32:21;;;;;;;0.50;0.50;;;;;;;10.70;85.56;96977.78;5056158;28;20220;-70
2023/02/19 10:34:48;;;;;;;0.70;0.70;;;;;;;10.59;86.02;96980.72;5055237;28;20266;-70
2023/02/19 10:37:16;;;;;;;5.07;2.30;;;;;;;10.67;85.02;96970.22;5055691;28;20207;-68
2023/02/19 10:39:46;;;;;;;3.03;0.60;;;;;;;10.78;83.37;96972.53;5054151;28;20200;-69
2023/02/19 10:42:18;;;;;;;2.67;0.80;;;;;;;10.80;83.47;96968.75;5054321;28;21131;-69
2023/02/19 10:44:47;;;;;;;1.90;0.83;;;;;;;10.99;83.04;96971.13;5055368;28;20200;-69
2023/02/19 10:47:21;;;;;;;0.43;0.43;;;;;;;10.80;81.50;96965.31;5055860;28;20200;-70
2023/02/19 10:49:49;;;;;;;0.83;0.50;;;;;;;10.66;82.28;96969.38;5056925;28;20204;-70
2023/02/19 10:52:21;;;;;;;1.13;1.00;;;;;;;10.71;84.93;96974.19;5056260;28;20216;-70
2023/02/19 10:54:51;;;;;;;1.33;1.23;;;;;;;10.46;87.11;96975.06;5055919;28;20224;-70
2023/02/19 10:57:31;;;;;;;0.83;0.70;;;;;;;10.38;87.22;96967.94;5056343;28;20213;-68
2023/02/19 11:00:01;;;;;;;1.93;0.93;;;;;;;10.26;88.79;96986.84;5056516;28;20216;-69
2023/02/19 11:02:30;;;;;;;0.80;0.60;;;;;;;10.18;87.33;97002.56;5055748;28;20302;-69
2023/02/19 11:05:16;;;;;;;0.83;0.70;;;;;;;10.25;88.72;96998.34;5054001;28;20208;-70
2023/02/19 11:07:46;;;;;;;1.90;0.93;;;;;;;10.02;91.67;96997.22;5055696;28;20686;-70
2023/02/19 11:10:22;;;;;;;1.07;0.90;;;;;;;9.99;91.18;96994.91;5055645;28;20201;-69
2023/02/19 11:12:51;;;;;;;3.97;0.73;;;;;;;9.98;91.39;96985.34;5056022;28;20255;-69
2023/02/19 11:15:22;;;;;;;1.00;0.67;;;;;;;10.01;90.96;96992.94;5055447;28;20207;-68
2023/02/19 11:17:57;;;;;;;2.97;1.57;;;;;;;10.01;92.88;96984.22;5056399;28;20305;-70
2023/02/19 11:20:24;;;;;;;2.90;0.90;;;;;;;10.04;91.02;96997.91;5056799;28;20200;-69
2023/02/19 11:22:52;;;;;;;1.23;0.80;;;;;;;10.11;88.87;96983.13;5057837;28;20220;-69
2023/02/19 11:25:24;;;;;;;1.73;0.80;;;;;;;10.26;88.29;96986.00;5057101;28;20197;-68
2023/02/19 11:28:01;;;;;;;2.63;0.70;;;;;;;10.22;86.75;96989.94;5060797;28;20208;-68
2023/02/19 11:30:38;;;;;;;1.03;0.77;;;;;;;10.63;86.66;96972.34;5059436;28;20212;-69
2023/02/19 11:33:22;;;;;;;1.73;0.53;;;;;;;10.65;85.88;96972.16;5059577;28;20250;-69
2023/02/19 11:35:50;;;;;;;1.53;0.90;;;;;;;10.56;85.67;96971.31;5053799;28;20201;-69
2023/02/19 11:38:19;;;;;;;0.50;0.50;;;;;;;10.73;86.33;96969.56;5058083;28;20208;-68
2023/02/19 11:40:52;;;;;;;1.73;0.67;;;;;;;10.52;84.25;96967.34;5058310;28;20201;-68
2023/02/19 11:43:37;;;;;;;0.93;0.67;;;;;;;10.97;84.16;96975.72;5059278;28;20228;-68
2023/02/19 11:46:09;;;;;;;1.33;0.60;;;;;;;11.07;81.08;96979.88;5059005;28;20201;-70
2023/02/19 11:51:37;;;;;;;4.27;1.83;;;;;;;11.00;79.40;96983.31;5059786;28;20201;-68
2023/02/19 11:54:18;;;;;;;13.27;3.30;;;;;;;11.18;79.73;96981.38;5058011;28;20224;-69
2023/02/19 11:56:49;;;;;;;10.70;3.30;;;;;;;11.14;80.49;96983.50;5058992;28;20212;-68
2023/02/19 11:59:23;;;;;;;4.37;1.50;;;;;;;10.88;79.56;96981.97;5059664;28;20224;-68
2023/02/19 12:02:22;;;;;;;1.17;0.70;;;;;;;10.78;80.22;96978.66;5058756;28;20224;-68
2023/02/19 12:05:17;;;;;;;5.93;1.10;;;;;;;11.05;78.85;96984.47;5038316;28;20552;-68
2023/02/19 12:08:07;;;;;;;3.93;1.00;;;;;;;11.10;80.68;96995.38;5057912;28;20213;-69
2023/02/19 12:10:44;;;;;;;1.67;0.80;;;;;;;11.09;79.39;96996.34;5058668;28;20234;-68
2023/02/19 12:13:22;;;;;;;0.87;0.70;;;;;;;11.18;77.89;96990.09;5059200;28;20227;-66